Time;durP1;ratioP1;P1;durP2;ratioP2;P2;SDS_P1;SDS_P2;PMS_P1;PMS_P2;Temp;Humidity;BMP_temperature;BMP_pressure;BME280_temperature;BME280_humidity;BME280_pressure;Samples;Min_cycle;Max_cycle;Signal;HPM_P1;HPM_P2
2022/05/12 00:02:27;;;;;;;;;;;;;;;20.52;41.17;97659.88;5134352;27;19919;-56
2022/05/12 00:04:55;;;;;;;;;;;;;;;20.41;41.36;97654.25;5125415;27;19919;-53
2022/05/12 00:07:25;;;;;;;;;;;;;;;20.36;41.39;97655.41;5151396;27;19922;-55
2022/05/12 00:09:55;;;;;;;;;;;;;;;20.36;41.47;97658.16;5148251;27;19958;-48
2022/05/12 00:12:48;;;;;;;;;;;;;;;20.42;41.10;97661.34;5148392;27;20406;-55
2022/05/12 00:15:18;;;;;;;;;;;;;;;20.39;41.18;97653.81;5153076;27;19919;-56
2022/05/12 00:17:46;;;;;;;;;;;;;;;20.48;41.05;97656.31;5144111;27;20171;-51
2022/05/12 00:20:14;;;;;;;;;;;;;;;20.54;40.43;97652.00;5142220;27;19963;-55
2022/05/12 00:22:42;;;;;;;;;;;;;;;20.30;40.97;97648.66;5145556;27;20217;-55
2022/05/12 00:25:13;;;;;;;;;;;;;;;20.22;41.01;97647.00;5151253;27;19952;-53
2022/05/12 00:27:41;;;;;;;;;;;;;;;20.33;40.67;97645.13;5140421;27;19919;-55
2022/05/12 00:30:10;;;;;;;;;;;;;;;20.30;41.21;97647.88;5140558;27;19919;-56
2022/05/12 00:32:38;;;;;;;;;;;;;;;20.35;41.23;97650.28;5132730;27;19943;-56
2022/05/12 00:35:07;;;;;;;;;;;;;;;20.30;41.05;97643.13;5137479;27;19930;-56
2022/05/12 00:37:35;;;;;;;;;;;;;;;20.31;40.87;97636.44;5141650;27;20256;-54
2022/05/12 00:40:02;;;;;;;;;;;;;;;20.29;40.32;97640.75;5151814;27;19930;-46
2022/05/12 00:45:24;;;;;;;;;;;;;;;20.37;39.84;97643.19;5154361;27;19957;-54
2022/05/12 00:47:52;;;;;;;;;;;;;;;20.34;39.51;97640.38;5165523;27;20005;-55
2022/05/12 00:50:21;;;;;;;;;;;;;;;20.37;39.52;97659.75;5155058;27;19969;-55
2022/05/12 00:52:50;;;;;;;;;;;;;;;20.37;39.60;97676.28;5162935;27;20375;-56
2022/05/12 00:55:20;;;;;;;;;;;;;;;20.38;38.91;97677.88;5149211;27;19919;-51
2022/05/12 00:57:50;;;;;;;;;;;;;;;20.58;38.25;97688.72;5152840;27;19923;-56
2022/05/12 01:00:19;;;;;;;;;;;;;;;20.62;36.85;97692.28;5153719;27;19918;-55
2022/05/12 01:02:48;;;;;;;;;;;;;;;20.63;36.64;97691.91;5151653;27;19923;-56
2022/05/12 01:05:16;;;;;;;;;;;;;;;20.63;35.32;97693.88;5156231;27;19963;-56
2022/05/12 01:07:44;;;;;;;;;;;;;;;20.60;35.51;97683.59;5147860;27;20022;-55
2022/05/12 01:10:12;;;;;;;;;;;;;;;20.62;35.79;97692.28;5141405;27;20127;-56
2022/05/12 01:12:40;;;;;;;;;;;;;;;20.58;36.21;97691.47;5136070;27;19980;-56
2022/05/12 01:15:10;;;;;;;;;;;;;;;20.74;35.87;97694.75;5151482;27;19968;-55
2022/05/12 01:17:39;;;;;;;;;;;;;;;20.74;36.50;97688.44;5151528;27;20367;-56
2022/05/12 01:20:07;;;;;;;;;;;;;;;20.54;36.96;97704.44;5150855;27;19919;-56
2022/05/12 01:22:39;;;;;;;;;;;;;;;20.49;38.01;97696.50;5143790;27;19966;-54
2022/05/12 01:25:10;;;;;;;;;;;;;;;20.49;37.69;97693.75;5150775;27;19926;-55
2022/05/12 01:27:39;;;;;;;;;;;;;;;20.60;37.22;97698.19;5154860;27;19962;-54
2022/05/12 01:30:07;;;;;;;;;;;;;;;20.60;37.16;97698.19;5129337;27;20277;-56
2022/05/12 01:32:35;;;;;;;;;;;;;;;20.42;37.66;97706.28;5149170;27;19968;-56
2022/05/12 01:35:04;;;;;;;;;;;;;;;20.34;37.79;97707.38;5150522;27;20278;-56
2022/05/12 01:37:33;;;;;;;;;;;;;;;20.30;38.01;97703.03;5148967;27;20010;-55
2022/05/12 01:40:01;;;;;;;;;;;;;;;20.31;38.32;97712.91;5154130;27;20351;-55
2022/05/12 01:45:23;;;;;;;;;;;;;;;20.17;38.24;97708.03;5142606;27;20025;-55
2022/05/12 01:47:51;;;;;;;;;;;;;;;20.32;36.93;97712.50;5155332;27;20443;-55
2022/05/12 01:50:19;;;;;;;;;;;;;;;20.34;36.54;97710.16;5145303;27;19950;-56
2022/05/12 01:52:47;;;;;;;;;;;;;;;20.31;36.95;97710.13;5151671;27;19998;-54
2022/05/12 01:55:16;;;;;;;;;;;;;;;20.25;37.31;97725.44;5159685;27;19927;-48
2022/05/12 01:57:45;;;;;;;;;;;;;;;20.37;36.88;97719.66;5147529;27;19963;-55
2022/05/12 02:00:14;;;;;;;;;;;;;;;20.32;36.95;97728.28;5155556;27;19927;-56
2022/05/12 02:02:42;;;;;;;;;;;;;;;20.29;37.58;97727.03;5153173;27;20382;-55
2022/05/12 02:05:11;;;;;;;;;;;;;;;20.13;37.87;97727.31;5148178;27;19938;-53
2022/05/12 02:07:40;;;;;;;;;;;;;;;20.10;37.88;97733.56;5160060;27;20372;-52
2022/05/12 02:10:08;;;;;;;;;;;;;;;20.23;36.91;97725.81;5155463;27;19959;-55
2022/05/12 02:12:36;;;;;;;;;;;;;;;20.10;38.03;97738.31;5162713;27;19936;-56
2022/05/12 02:15:08;;;;;;;;;;;;;;;20.11;37.41;97754.47;5144074;27;19933;-55
2022/05/12 02:17:36;;;;;;;;;;;;;;;20.11;37.06;97757.22;5145599;27;19978;-55
2022/05/12 02:20:07;;;;;;;;;;;;;;;20.10;36.42;97746.56;5151517;27;19934;-49
2022/05/12 02:22:35;;;;;;;;;;;;;;;20.22;36.66;97754.56;5149973;27;19923;-54
2022/05/12 02:25:03;;;;;;;;;;;;;;;20.27;36.34;97757.00;5147485;27;19919;-50
2022/05/12 02:27:56;;;;;;;;;;;;;;;20.22;36.36;97751.81;5146942;27;19979;-54
2022/05/12 02:30:26;;;;;;;;;;;;;;;20.34;36.45;97759.81;5157142;27;19919;-55
2022/05/12 02:33:19;;;;;;;;;;;;;;;20.32;36.69;97761.38;5150294;27;19973;-56
2022/05/12 02:35:47;;;;;;;;;;;;;;;20.29;36.56;97768.44;5165622;27;19918;-55
2022/05/12 02:38:15;;;;;;;;;;;;;;;20.23;36.60;97769.16;5159600;27;19927;-55
2022/05/12 02:40:42;;;;;;;;;;;;;;;20.24;36.24;97765.22;5155665;27;19999;-55
2022/05/12 02:43:24;;;;;;;;;;;;;;;20.20;36.40;97779.00;5152455;27;20008;-55
2022/05/12 02:45:54;;;;;;;;;;;;;;;20.16;36.51;97775.41;5140212;27;19951;-50
2022/05/12 02:48:50;;;;;;;;;;;;;;;20.19;36.46;97780.16;5152089;27;20266;-46
2022/05/12 02:51:18;;;;;;;;;;;;;;;20.08;36.77;97784.75;5151114;27;19919;-51
2022/05/12 02:54:11;;;;;;;;;;;;;;;20.11;36.93;97784.00;5145271;27;19926;-55
2022/05/12 02:57:05;;;;;;;;;;;;;;;20.08;36.92;97779.22;5148380;27;20274;-50
2022/05/12 02:59:33;;;;;;;;;;;;;;;19.94;37.25;97779.09;5146957;27;19954;-51
2022/05/12 03:02:02;;;;;;;;;;;;;;;19.94;37.49;97784.59;5145172;27;19949;-48
2022/05/12 03:04:30;;;;;;;;;;;;;;;19.89;37.62;97789.28;5134939;27;20002;-54
2022/05/12 03:06:58;;;;;;;;;;;;;;;19.93;38.08;97794.84;5159759;27;20011;-56
2022/05/12 03:09:26;;;;;;;;;;;;;;;19.97;37.77;97790.16;5159897;27;19918;-55
2022/05/12 03:11:54;;;;;;;;;;;;;;;19.99;38.09;97790.59;5155221;27;20252;-55
2022/05/12 03:14:22;;;;;;;;;;;;;;;19.92;38.41;97798.78;5161915;27;20286;-54
2022/05/12 03:16:52;;;;;;;;;;;;;;;19.96;38.84;97796.84;5158177;27;19919;-54
2022/05/12 03:19:23;;;;;;;;;;;;;;;19.90;39.10;97806.59;5165376;27;20377;-59
2022/05/12 03:21:51;;;;;;;;;;;;;;;19.94;39.40;97815.72;5154697;27;19944;-55
2022/05/12 03:24:19;;;;;;;;;;;;;;;19.96;39.29;97820.84;5156264;27;20324;-55
2022/05/12 03:26:48;;;;;;;;;;;;;;;19.91;39.59;97821.19;5152612;27;20282;-55
2022/05/12 03:29:16;;;;;;;;;;;;;;;19.96;39.62;97823.63;5144443;27;19923;-55
2022/05/12 03:31:45;;;;;;;;;;;;;;;19.94;39.92;97820.44;5156689;27;19942;-54
2022/05/12 03:34:14;;;;;;;;;;;;;;;19.87;40.68;97823.91;5154789;27;19923;-56
2022/05/12 03:36:44;;;;;;;;;;;;;;;19.91;40.73;97830.25;5149738;27;19963;-55
2022/05/12 03:39:12;;;;;;;;;;;;;;;19.95;40.75;97825.59;5148491;27;19931;-56
2022/05/12 03:41:40;;;;;;;;;;;;;;;19.88;40.89;97825.50;5144798;27;19924;-56
2022/05/12 03:46:54;;;;;;;;;;;;;;;19.82;41.14;97835.28;5142182;27;20449;-52
2022/05/12 03:49:22;;;;;;;;;;;;;;;19.85;41.50;97840.03;5124515;27;20573;-56
2022/05/12 03:51:51;;;;;;;;;;;;;;;19.82;41.70;97844.34;5142519;27;20529;-51
2022/05/12 03:54:24;;;;;;;;;;;;;;;19.77;41.82;97849.38;5144897;27;19919;-56
2022/05/12 03:56:52;;;;;;;;;;;;;;;19.77;41.79;97846.63;5144893;27;19924;-46
2022/05/12 03:59:20;;;;;;;;;;;;;;;19.76;42.22;97845.84;5139279;27;19958;-55
2022/05/12 04:01:49;;;;;;;;;;;;;;;19.78;42.06;97853.72;5141004;27;19970;-53
2022/05/12 04:04:17;;;;;;;;;;;;;;;19.76;42.31;97861.56;5141077;27;19931;-54
2022/05/12 04:06:44;;;;;;;;;;;;;;;19.72;42.23;97866.25;5142319;27;20006;-55
2022/05/12 04:09:14;;;;;;;;;;;;;;;19.81;42.22;97875.81;5116948;27;20226;-55
2022/05/12 04:11:42;;;;;;;;;;;;;;;19.87;42.00;97874.34;5153134;27;19919;-55
2022/05/12 04:14:10;;;;;;;;;;;;;;;19.89;42.37;97880.25;5141365;27;19972;-54
2022/05/12 04:16:38;;;;;;;;;;;;;;;19.84;42.38;97888.06;5143172;27;19931;-54
2022/05/12 04:19:05;;;;;;;;;;;;;;;19.83;42.46;97878.22;5140945;27;20128;-55
2022/05/12 04:21:58;;;;;;;;;;;;;;;19.78;42.65;97889.56;5149550;27;20467;-55
2022/05/12 04:24:33;;;;;;;;;;;;;;;19.69;42.81;97892.56;5137271;27;19954;-55
2022/05/12 04:27:01;;;;;;;;;;;;;;;19.62;43.22;97890.50;5139932;27;19958;-55
2022/05/12 04:29:29;;;;;;;;;;;;;;;19.63;43.08;97894.06;5147446;27;20018;-55
2022/05/12 04:37:36;;;;;;;;;;;;;;;19.73;43.38;97914.69;5152111;27;19919;-56
2022/05/12 04:40:07;;;;;;;;;;;;;;;19.71;43.46;97915.06;5154950;27;20319;-55
2022/05/12 04:42:40;;;;;;;;;;;;;;;19.62;43.70;97920.03;5143143;27;19923;-55
2022/05/12 04:45:09;;;;;;;;;;;;;;;19.69;43.73;97928.41;5143107;27;19918;-55
2022/05/12 04:47:39;;;;;;;;;;;;;;;19.62;43.98;97931.06;5142757;27;19923;-56
2022/05/12 04:50:09;;;;;;;;;;;;;;;19.67;43.90;97929.94;5151923;27;19967;-55
2022/05/12 04:52:37;;;;;;;;;;;;;;;19.73;43.93;97940.28;5144386;27;19925;-56
2022/05/12 04:55:07;;;;;;;;;;;;;;;19.62;44.06;97937.38;5143801;27;19958;-54
2022/05/12 04:57:36;;;;;;;;;;;;;;;19.66;44.16;97942.94;5151744;27;20564;-50
2022/05/12 05:00:05;;;;;;;;;;;;;;;19.65;44.48;97949.59;5158714;27;20846;-49
2022/05/12 05:02:33;;;;;;;;;;;;;;;19.58;44.44;97955.78;5150824;27;20014;-56
2022/05/12 05:05:01;;;;;;;;;;;;;;;19.61;44.67;97959.78;5142056;27;19989;-55
2022/05/12 05:07:29;;;;;;;;;;;;;;;19.41;45.09;97961.78;5151424;27;19931;-56
2022/05/12 05:12:53;;;;;;;;;;;;;;;19.56;45.23;97976.59;5141344;27;19920;-55
2022/05/12 05:15:21;;;;;;;;;;;;;;;19.66;45.01;97977.97;5136339;27;19924;-56
2022/05/12 05:17:51;;;;;;;;;;;;;;;19.54;45.60;97987.19;5137031;27;19923;-55
2022/05/12 05:20:20;;;;;;;;;;;;;;;19.55;45.64;97988.81;5133490;27;19919;-55
2022/05/12 05:22:48;;;;;;;;;;;;;;;19.58;45.59;97988.03;5137934;27;20029;-56
2022/05/12 05:25:16;;;;;;;;;;;;;;;19.58;46.22;97990.81;5139711;27;19954;-55
2022/05/12 05:27:45;;;;;;;;;;;;;;;19.79;45.64;97999.44;5150032;27;20358;-56
2022/05/12 05:30:16;;;;;;;;;;;;;;;19.67;45.69;98007.91;5159145;27;20003;-56
2022/05/12 05:32:45;;;;;;;;;;;;;;;19.62;46.02;98010.97;5156733;27;19942;-56
2022/05/12 05:35:13;;;;;;;;;;;;;;;19.59;46.08;98022.72;5148991;27;19919;-56
2022/05/12 05:37:45;;;;;;;;;;;;;;;19.66;45.95;98030.34;5150759;27;20358;-56
2022/05/12 05:40:14;;;;;;;;;;;;;;;19.61;46.27;98032.25;5144299;27;19925;-57
2022/05/12 05:42:43;;;;;;;;;;;;;;;19.72;46.16;98037.13;5152506;27;19972;-57
2022/05/12 05:45:12;;;;;;;;;;;;;;;19.86;45.93;98040.09;5164744;27;19918;-57
2022/05/12 05:48:06;;;;;;;;;;;;;;;20.02;45.69;98038.00;5152793;27;19927;-57
2022/05/12 05:53:23;;;;;;;;;;;;;;;20.17;45.48;98043.75;5144276;27;19955;-57
2022/05/12 05:53:25;;;;;;;;;;;;;;;19.86;46.38;98054.69;5139925;27;19919;-57
2022/05/12 05:55:56;;;;;;;;;;;;;;;19.79;46.48;98057.34;5171456;27;19986;-57
2022/05/12 05:58:24;;;;;;;;;;;;;;;19.64;46.99;98055.50;5171830;27;19985;-57
2022/05/12 06:00:52;;;;;;;;;;;;;;;19.61;47.04;98068.06;5153730;27;20405;-56
2022/05/12 06:03:21;;;;;;;;;;;;;;;19.55;47.14;98072.25;5160437;27;19922;-56
2022/05/12 06:05:50;;;;;;;;;;;;;;;19.69;47.17;98063.47;5116650;28;19952;-57
2022/05/12 06:08:18;;;;;;;;;;;;;;;19.71;47.00;98063.91;5135427;27;19971;-56
2022/05/12 06:10:47;;;;;;;;;;;;;;;19.82;46.90;98064.88;5142112;27;19924;-57
2022/05/12 06:13:15;;;;;;;;;;;;;;;19.85;46.96;98066.88;5167207;27;20563;-56
2022/05/12 06:15:43;;;;;;;;;;;;;;;19.93;46.52;98065.06;5156742;27;19919;-57
2022/05/12 06:18:14;;;;;;;;;;;;;;;19.98;46.51;98069.47;5165685;27;20401;-57
2022/05/12 06:20:44;;;;;;;;;;;;;;;19.96;46.21;98085.56;5143757;27;19918;-57
2022/05/12 06:23:37;;;;;;;;;;;;;;;19.91;46.64;98094.16;5143269;27;19919;-57
2022/05/12 06:26:09;;;;;;;;;;;;;;;20.01;46.60;98090.78;5149929;27;19926;-57
2022/05/12 06:28:42;;;;;;;;;;;;;;;20.04;46.56;98103.84;5152119;27;19971;-57
2022/05/12 06:31:11;;;;;;;;;;;;;;;19.91;46.56;98097.69;5139008;27;20325;-56
2022/05/12 06:33:39;;;;;;;;;;;;;;;20.15;46.38;98104.81;5156416;27;19959;-56
2022/05/12 06:39:42;;;;;;;;;;;;;;;20.11;46.43;98114.97;5135162;27;19944;-57
2022/05/12 06:42:10;;;;;;;;;;;;;;;20.23;46.15;98112.00;5160592;27;19919;-56
2022/05/12 06:44:42;;;;;;;;;;;;;;;20.57;45.53;98112.19;5136951;27;20319;-57
2022/05/12 06:47:11;;;;;;;;;;;;;;;20.39;45.91;98109.91;5148491;27;19971;-56
2022/05/12 06:49:39;;;;;;;;;;;;;;;20.60;45.64;98109.44;5133690;27;19930;-58
2022/05/12 06:52:08;;;;;;;;;;;;;;;20.86;45.35;98119.66;5155204;27;19919;-56
2022/05/12 06:54:39;;;;;;;;;;;;;;;20.33;46.02;98122.41;5164593;27;19985;-57
2022/05/12 07:00:46;;;;;;;;;;;;;;;20.29;46.37;98127.06;5151842;27;19929;-57
2022/05/12 07:03:14;;;;;;;;;;;;;;;20.33;46.15;98133.47;5168498;27;19918;-57
2022/05/12 07:05:42;;;;;;;;;;;;;;;20.18;46.40;98134.38;5146354;27;19926;-57
2022/05/12 07:08:10;;;;;;;;;;;;;;;20.02;46.44;98133.72;5167703;27;19919;-56
2022/05/12 07:10:38;;;;;;;;;;;;;;;20.15;46.66;98138.69;5164818;27;20157;-57
2022/05/12 07:13:06;;;;;;;;;;;;;;;20.37;46.25;98134.31;5138948;27;20417;-57
2022/05/12 07:15:34;;;;;;;;;;;;;;;20.50;45.92;98131.38;5151049;27;20316;-57
2022/05/12 07:18:04;;;;;;;;;;;;;;;20.55;45.76;98134.59;5163426;27;19926;-57
2022/05/12 07:28:49;;;;;;;;;;;;;;;20.50;45.50;98148.72;5145093;27;19999;-57
2022/05/12 07:31:16;;;;;;;;;;;;;;;20.39;45.79;98150.50;5160882;27;19930;-57
2022/05/12 07:33:46;;;;;;;;;;;;;;;20.56;45.78;98140.91;5175466;27;19919;-57
2022/05/12 07:36:15;;;;;;;;;;;;;;;20.36;45.62;98154.00;5149641;27;20046;-57
2022/05/12 07:38:43;;;;;;;;;;;;;;;20.51;45.75;98157.81;5167275;27;20033;-57
2022/05/12 07:41:12;;;;;;;;;;;;;;;20.34;46.09;98159.09;5155474;27;19919;-57
2022/05/12 07:43:40;;;;;;;;;;;;;;;20.39;45.92;98162.31;5147985;27;19932;-57
2022/05/12 07:46:11;;;;;;;;;;;;;;;20.28;46.25;98163.31;5156083;27;19985;-57
2022/05/12 07:48:39;;;;;;;;;;;;;;;20.38;46.12;98169.00;5164258;27;19975;-57
2022/05/12 07:51:11;;;;;;;;;;;;;;;20.50;45.75;98175.53;5153986;27;20414;-57
2022/05/12 07:53:40;;;;;;;;;;;;;;;20.61;45.71;98168.22;5154580;27;19927;-57
2022/05/12 07:56:11;;;;;;;;;;;;;;;20.68;45.36;98160.06;5158705;27;19919;-56
2022/05/12 07:58:39;;;;;;;;;;;;;;;20.88;45.25;98157.97;5154790;27;20291;-57
2022/05/12 08:01:11;;;;;;;;;;;;;;;21.05;44.91;98164.91;5150521;27;19922;-54
2022/05/12 08:03:40;;;;;;;;;;;;;;;21.16;44.98;98174.13;5143720;27;19954;-57
2022/05/12 08:06:13;;;;;;;;;;;;;;;21.33;44.18;98175.56;5156368;27;20354;-57
2022/05/12 08:08:42;;;;;;;;;;;;;;;21.01;43.80;98175.91;5156449;27;19951;-57
2022/05/12 08:11:13;;;;;;;;;;;;;;;21.05;44.12;98176.75;5170268;27;19922;-56
2022/05/12 08:13:42;;;;;;;;;;;;;;;21.26;43.17;98173.47;5151319;27;19919;-57
2022/05/12 08:16:18;;;;;;;;;;;;;;;21.12;43.44;98189.84;5156182;27;19966;-56
2022/05/12 08:18:49;;;;;;;;;;;;;;;20.91;44.05;98171.81;5168858;27;19925;-57
2022/05/12 08:21:20;;;;;;;;;;;;;;;20.63;44.65;98187.97;5138730;27;20415;-57
2022/05/12 08:23:50;;;;;;;;;;;;;;;20.59;44.66;98193.44;5162547;27;19986;-57
2022/05/12 08:26:19;;;;;;;;;;;;;;;20.81;44.07;98200.06;5136989;27;19945;-57
2022/05/12 08:28:50;;;;;;;;;;;;;;;20.80;43.67;98181.91;5136862;27;19919;-57
2022/05/12 08:31:20;;;;;;;;;;;;;;;20.84;43.81;98193.81;5142777;27;20423;-57
2022/05/12 08:33:48;;;;;;;;;;;;;;;20.85;44.01;98197.38;5157247;27;19919;-57
2022/05/12 08:36:21;;;;;;;;;;;;;;;20.92;43.85;98191.94;5155261;27;20283;-57
2022/05/12 08:38:49;;;;;;;;;;;;;;;21.19;43.22;98196.25;5157446;27;20016;-57
2022/05/12 08:41:19;;;;;;;;;;;;;;;21.54;42.79;98189.63;5161038;27;19919;-57
2022/05/12 08:43:50;;;;;;;;;;;;;;;21.43;42.35;98195.03;5177651;27;19919;-57
2022/05/12 08:46:18;;;;;;;;;;;;;;;21.69;41.73;98196.13;5170890;27;20062;-57
2022/05/12 08:48:47;;;;;;;;;;;;;;;21.57;41.35;98202.72;5155588;27;19919;-57
2022/05/12 08:51:16;;;;;;;;;;;;;;;21.70;41.56;98197.72;5159942;27;19926;-57
2022/05/12 08:53:47;;;;;;;;;;;;;;;21.21;41.82;98215.25;5178067;27;20342;-57
2022/05/12 08:56:15;;;;;;;;;;;;;;;21.39;41.58;98207.22;5169768;27;19919;-57
2022/05/12 08:58:45;;;;;;;;;;;;;;;21.47;41.38;98219.16;5156198;27;20006;-57
2022/05/12 09:01:14;;;;;;;;;;;;;;;21.14;42.20;98212.38;5167952;27;20370;-57
2022/05/12 09:03:47;;;;;;;;;;;;;;;21.28;41.74;98215.34;5156448;27;19919;-57
2022/05/12 09:06:47;;;;;;;;;;;;;;;21.31;41.66;98211.88;5155488;27;20346;-57
2022/05/12 09:09:18;;;;;;;;;;;;;;;21.65;41.14;98211.88;5156568;27;19960;-57
2022/05/12 09:11:48;;;;;;;;;;;;;;;21.58;41.38;98215.34;5143427;27;20256;-57
2022/05/12 09:14:17;;;;;;;;;;;;;;;21.50;41.61;98218.41;5177398;27;20375;-57
2022/05/12 09:16:46;;;;;;;;;;;;;;;21.79;41.27;98222.31;5170327;27;19926;-57
2022/05/12 09:19:15;;;;;;;;;;;;;;;21.81;41.26;98220.75;5135935;27;19961;-57
2022/05/12 09:21:43;;;;;;;;;;;;;;;21.82;41.35;98219.56;5139181;27;19964;-57
2022/05/12 09:24:13;;;;;;;;;;;;;;;21.65;42.13;98225.69;5159497;27;20329;-57
2022/05/12 09:26:44;;;;;;;;;;;;;;;21.82;41.49;98222.34;5148346;27;19972;-57
2022/05/12 09:29:17;;;;;;;;;;;;;;;21.60;42.01;98226.81;5135057;27;19920;-57
2022/05/12 09:31:46;;;;;;;;;;;;;;;21.51;42.40;98223.53;5136599;27;19919;-57
2022/05/12 09:34:23;;;;;;;;;;;;;;;21.63;42.03;98226.09;5156163;27;19958;-57
2022/05/12 09:36:52;;;;;;;;;;;;;;;21.69;41.56;98221.00;5154064;27;19923;-57
2022/05/12 09:39:31;;;;;;;;;;;;;;;21.68;41.58;98213.91;5155994;27;19988;-57
2022/05/12 09:42:01;;;;;;;;;;;;;;;21.64;41.58;98221.34;5152483;27;19919;-57
2022/05/12 09:44:54;;;;;;;;;;;;;;;21.67;41.94;98229.66;5155761;27;19959;-57
2022/05/12 09:47:22;;;;;;;;;;;;;;;21.74;41.75;98217.13;5154259;27;19919;-57
2022/05/12 09:49:51;;;;;;;;;;;;;;;21.78;41.42;98220.69;5155612;27;19971;-57
2022/05/12 09:52:29;;;;;;;;;;;;;;;21.68;41.19;98216.66;5154308;27;20358;-57
2022/05/12 09:55:09;;;;;;;;;;;;;;;21.95;41.41;98215.38;5155800;27;19925;-57
2022/05/12 09:57:46;;;;;;;;;;;;;;;22.07;40.77;98217.06;5135166;27;21380;-57
2022/05/12 10:00:24;;;;;;;;;;;;;;;22.20;39.71;98209.31;5136675;27;19972;-57
2022/05/12 10:08:30;;;;;;;;;;;;;;;21.94;41.23;98213.78;5133901;27;19919;-57
2022/05/12 10:10:57;;;;;;;;;;;;;;;;;;5155588;27;19928;-57
2022/05/12 10:13:51;;;;;;;;;;;;;;;21.96;41.43;98211.44;5134819;27;19920;-57
2022/05/12 10:16:22;;;;;;;;;;;;;;;22.20;40.79;98204.56;5134769;28;19926;-57
2022/05/12 10:18:51;;;;;;;;;;;;;;;22.20;41.04;98207.34;5164980;27;20312;-57
2022/05/12 10:21:44;;;;;;;;;;;;;;;22.32;40.90;98211.00;5132400;27;20086;-57
2022/05/12 10:24:14;;;;;;;;;;;;;;;22.42;40.22;98202.78;5160938;27;19918;-57
2022/05/12 10:26:45;;;;;;;;;;;;;;;22.47;40.20;98207.97;5155338;27;19954;-57
2022/05/12 10:29:18;;;;;;;;;;;;;;;22.75;39.78;98212.16;5171583;27;20393;-57
2022/05/12 10:31:48;;;;;;;;;;;;;;;22.61;40.03;98212.06;5176053;27;20258;-57
2022/05/12 10:34:28;;;;;;;;;;;;;;;22.61;39.76;98217.59;5155944;27;19919;-57
2022/05/12 10:36:59;;;;;;;;;;;;;;;22.35;39.62;98226.84;5134401;27;19919;-57
2022/05/12 10:39:28;;;;;;;;;;;;;;;22.42;39.57;98222.16;5131507;27;19919;-57
2022/05/12 10:42:00;;;;;;;;;;;;;;;22.16;40.27;98209.31;5135169;28;19926;-57
2022/05/12 10:44:54;;;;;;;;;;;;;;;22.27;40.37;98214.94;5132266;27;19919;-57
2022/05/12 10:47:27;;;;;;;;;;;;;;;22.12;40.60;98218.75;5136253;27;19926;-58
2022/05/12 10:49:56;;;;;;;;;;;;;;;21.86;41.08;98217.66;5138659;27;19925;-58
2022/05/12 10:52:27;;;;;;;;;;;;;;;21.95;41.35;98220.91;5146460;27;20347;-57
2022/05/12 10:55:05;;;;;;;;;;;;;;;21.81;40.78;98215.22;5118218;28;19926;-58
2022/05/12 10:57:35;;;;;;;;;;;;;;;21.81;40.81;98215.22;5116727;27;20022;-56
2022/05/12 11:00:06;;;;;;;;;;;;;;;21.79;41.36;98206.50;5118085;27;20027;-57
2022/05/12 11:02:38;;;;;;;;;;;;;;;21.92;41.05;98212.56;5157246;27;19926;-57
2022/05/12 11:05:10;;;;;;;;;;;;;;;22.23;40.63;98214.09;5144263;27;20005;-57
2022/05/12 11:07:40;;;;;;;;;;;;;;;22.20;40.85;98203.78;5142584;27;19919;-58
2022/05/12 11:10:10;;;;;;;;;;;;;;;22.29;40.78;98195.16;5135870;27;19919;-57
2022/05/12 11:12:43;;;;;;;;;;;;;;;22.30;40.67;98194.00;5158863;27;19941;-58
2022/05/12 11:15:13;;;;;;;;;;;;;;;22.35;40.62;98194.44;5117278;28;19924;-57
2022/05/12 11:17:44;;;;;;;;;;;;;;;22.47;40.77;98210.75;5117511;28;19958;-57
2022/05/12 11:20:17;;;;;;;;;;;;;;;22.28;41.13;98205.44;5154841;27;20021;-58
2022/05/12 11:22:47;;;;;;;;;;;;;;;22.42;41.46;98202.00;5130503;27;19920;-57
2022/05/12 11:25:16;;;;;;;;;;;;;;;22.62;40.77;98194.25;5133666;27;19926;-57
2022/05/12 11:27:46;;;;;;;;;;;;;;;22.65;40.44;98196.25;5135606;27;20005;-57
2022/05/12 11:30:19;;;;;;;;;;;;;;;22.78;40.24;98216.91;5133738;27;19953;-54
2022/05/12 11:32:51;;;;;;;;;;;;;;;22.32;41.04;98203.50;5140689;27;19926;-57
2022/05/12 11:35:20;;;;;;;;;;;;;;;22.29;41.04;98190.44;5117460;27;19919;-58
2022/05/12 11:37:58;;;;;;;;;;;;;;;22.54;41.03;98195.38;5122637;27;19926;-58
2022/05/12 11:40:50;;;;;;;;;;;;;;;22.79;40.58;98190.00;5152688;27;19919;-57
2022/05/12 11:46:25;;;;;;;;;;;;;;;22.83;40.56;98183.31;5134842;27;20360;-57
2022/05/12 11:48:55;;;;;;;;;;;;;;;23.09;39.41;98181.53;5139812;27;19926;-58
2022/05/12 11:51:27;;;;;;;;;;;;;;;23.29;39.53;98184.81;5156400;27;19919;-58
2022/05/12 11:54:25;;;;;;;;;;;;;;;23.46;38.27;98181.31;5131574;27;19926;-58
2022/05/12 11:56:53;;;;;;;;;;;;;;;23.46;38.67;98176.56;5137323;27;19925;-58
2022/05/12 12:02:35;;;;;;;;;;;;;;;23.50;38.41;98174.59;5158175;27;20346;-58
2022/05/12 12:05:05;;;;;;;;;;;;;;;23.37;38.54;98173.34;5162870;27;20018;-57
2022/05/12 12:07:53;;;;;;;;;;;;;;;23.44;38.16;98164.28;5169346;27;20404;-58
2022/05/12 12:10:40;;;;;;;;;;;;;;;23.55;37.37;98169.84;5158143;27;19926;-58
2022/05/12 12:13:23;;;;;;;;;;;;;;;23.71;37.50;98159.25;5159949;27;20369;-57
2022/05/12 12:16:16;;;;;;;;;;;;;;;23.82;37.12;98157.28;5179418;27;19926;-58
2022/05/12 12:19:03;;;;;;;;;;;;;;;23.78;37.92;98160.03;5140779;27;19962;-57
2022/05/12 12:21:49;;;;;;;;;;;;;;;23.57;36.49;98156.38;5160480;27;20278;-58
2022/05/12 12:24:36;;;;;;;;;;;;;;;23.64;36.12;98164.75;5160875;27;19926;-58
2022/05/12 12:27:19;;;;;;;;;;;;;;;23.74;36.03;98161.22;5175662;27;19971;-58
2022/05/12 12:29:49;;;;;;;;;;;;;;;23.73;36.08;98159.63;5155416;27;19919;-58
2022/05/12 12:32:26;;;;;;;;;;;;;;;23.71;35.96;98156.47;5138897;27;19997;-58
2022/05/12 12:34:54;;;;;;;;;;;;;;;23.79;36.63;98152.50;5146294;27;19919;-57
2022/05/12 12:37:41;;;;;;;;;;;;;;;23.98;36.44;98160.47;5147478;27;19976;-58
2022/05/12 12:40:39;;;;;;;;;;;;;;;23.82;36.31;98154.50;5150790;27;19925;-58
2022/05/12 12:43:15;;;;;;;;;;;;;;;23.84;36.43;98160.44;5072984;28;19920;-57
2022/05/12 12:45:45;;;;;;;;;;;;;;;23.67;36.44;98166.75;5121889;27;19919;-58
2022/05/12 12:48:14;;;;;;;;;;;;;;;23.66;36.42;98145.75;5139724;27;19919;-58
2022/05/12 12:50:43;;;;;;;;;;;;;;;23.80;36.72;98156.84;5152420;27;19951;-58
2022/05/12 12:53:12;;;;;;;;;;;;;;;23.41;37.63;98154.75;5157087;27;19923;-58
2022/05/12 12:58:42;;;;;;;;;;;;;;;23.34;37.90;98154.72;5141739;27;19926;-58
2022/05/12 13:01:13;;;;;;;;;;;;;;;23.26;38.68;98145.56;5175170;27;19919;-57
2022/05/12 13:03:44;;;;;;;;;;;;;;;23.25;38.22;98145.97;5177936;27;19958;-58
2022/05/12 13:06:18;;;;;;;;;;;;;;;22.90;38.76;98141.03;5175739;27;19919;-57
2022/05/12 13:08:56;;;;;;;;;;;;;;;22.91;38.87;98132.34;5177165;27;19919;-58
2022/05/12 13:11:24;;;;;;;;;;;;;;;23.19;38.68;98139.22;5141819;27;19919;-58
2022/05/12 13:13:55;;;;;;;;;;;;;;;23.51;37.83;98134.56;5135887;27;19976;-58
2022/05/12 13:16:25;;;;;;;;;;;;;;;23.66;36.99;98148.53;5165182;27;19943;-57
2022/05/12 13:18:55;;;;;;;;;;;;;;;23.47;36.56;98128.22;5177316;27;19918;-58
2022/05/12 13:21:48;;;;;;;;;;;;;;;23.53;37.08;98128.63;5127762;27;19919;-58
2022/05/12 13:24:18;;;;;;;;;;;;;;;23.62;37.34;98136.59;5135827;27;19958;-58
2022/05/12 13:26:47;;;;;;;;;;;;;;;23.58;37.89;98130.22;5167875;27;19923;-58
2022/05/12 13:29:20;;;;;;;;;;;;;;;23.53;37.76;98132.19;5177022;27;19923;-58
2022/05/12 13:34:52;;;;;;;;;;;;;;;23.52;36.81;98127.06;5176901;27;19918;-57
2022/05/12 13:37:21;;;;;;;;;;;;;;;23.67;36.64;98116.81;5156049;27;20014;-58
2022/05/12 13:39:50;;;;;;;;;;;;;;;23.73;36.36;98113.25;5156048;27;19977;-57
2022/05/12 13:42:21;;;;;;;;;;;;;;;23.56;36.79;98118.75;5133923;27;19919;-57
2022/05/12 13:44:51;;;;;;;;;;;;;;;23.59;36.35;98123.50;5135238;27;19923;-57
2022/05/12 13:47:21;;;;;;;;;;;;;;;23.59;36.05;98126.28;5133239;27;19941;-57
2022/05/12 13:49:49;;;;;;;;;;;;;;;23.61;36.27;98115.59;5135124;27;19937;-57
2022/05/12 13:52:18;;;;;;;;;;;;;;;23.86;36.18;98130.31;5131813;27;19920;-57
2022/05/12 13:55:06;;;;;;;;;;;;;;;23.87;35.88;98120.81;5156536;27;20335;-57
2022/05/12 13:57:36;;;;;;;;;;;;;;;23.79;35.85;98119.22;5145558;27;19919;-57
2022/05/12 14:00:18;;;;;;;;;;;;;;;23.79;35.36;98124.75;5163275;27;20355;-57
2022/05/12 14:02:47;;;;;;;;;;;;;;;23.62;34.94;98109.66;5173854;27;19926;-57